This is the latest recevied weather packets stored in our database for station/object EA4BCR. If no packets are shown the sender has not sent any weather packets the latest 10 day(s).
| Time | Temp. | Humidity | Pressure | Rain* | Wind** | Luminosity | Snow |
|---|---|---|---|---|---|---|---|
| 1777907453 | 17.78° C | 60% | 1010.3 hPa | - | - | - | - |
| 1777906853 | 18.89° C | 58% | 1009.8 hPa | - | - | - | - |
| 1777906253 | 18.89° C | 64% | 1009.9 hPa | - | - | - | - |
| 1777905654 | 17.78° C | 65% | 1010.3 hPa | - | - | - | - |
| 1777905053 | 17.22° C | 77% | 1010.7 hPa | - | - | - | - |
| 1777904453 | 17.22° C | 79% | 1010.9 hPa | - | - | - | - |
| 1777903852 | 17.22° C | 78% | 1010.9 hPa | - | - | - | - |
| 1777903252 | 16.11° C | 84% | 1011.6 hPa | - | - | - | - |
| 1777902655 | 15° C | 87% | 1011.9 hPa | - | - | - | - |
| 1777902053 | 15° C | 94% | 1012.3 hPa | - | - | - | - |
| 1777901452 | 14.44° C | 98% | 1012.7 hPa | - | - | - | - |
| 1777900852 | 13.33° C | 10% | - | - | - | - | - |
| 1777900253 | 13.33° C | 10% | - | - | - | - | - |
| 1777899652 | 12.78° C | 10% | - | - | - | - | - |
| 1777899053 | 12.22° C | 10% | - | - | - | - | - |
| 1777898452 | 11.67° C | 10% | - | - | - | - | - |
| 1777897853 | 13.33° C | 97% | 1013.4 hPa | - | - | - | - |
| 1777897256 | 17.78° C | 65% | 1010.4 hPa | - | - | - | - |
| 1777896653 | 19.44° C | 50% | 1009.6 hPa | - | - | - | - |
| 1777896053 | 20.56° C | 44% | 1009.4 hPa | - | - | - | - |
| 1777895452 | 20° C | 41% | 1009.8 hPa | - | - | - | - |
| 1777894852 | 20.56° C | 40% | 1009.7 hPa | - | - | - | - |
| 1777894253 | 20° C | 45% | 1009.9 hPa | - | - | - | - |
| 1777893653 | 19.44° C | 55% | 1010 hPa | - | - | - | - |
| 1777893053 | 18.89° C | 50% | 1010.4 hPa | - | - | - | - |
* Rain since midnight (hover to see other rain measurements)
** Current wind speed in m/s (hover to see current wind gust speed)